sensor_id;sensor_type;location;lat;lon;timestamp;pressure;altitude;pressure_sealevel;temperature;humidity
35577;BME280;21680;52.400;16.920;2023-02-08T00:01:06;103500.34;;;-1.26;81.94
35577;BME280;21680;52.400;16.920;2023-02-08T00:03:31;103496.90;;;-1.28;82.01
35577;BME280;21680;52.400;16.920;2023-02-08T00:05:56;103502.45;;;-1.29;82.10
35577;BME280;21680;52.400;16.920;2023-02-08T00:08:21;103500.98;;;-1.31;81.87
35577;BME280;21680;52.400;16.920;2023-02-08T00:10:47;103505.27;;;-1.33;81.75
35577;BME280;21680;52.400;16.920;2023-02-08T00:13:13;103508.84;;;-1.35;81.80
35577;BME280;21680;52.400;16.920;2023-02-08T00:15:41;103509.55;;;-1.35;81.89
35577;BME280;21680;52.400;16.920;2023-02-08T00:18:06;103514.34;;;-1.34;81.89
35577;BME280;21680;52.400;16.920;2023-02-08T00:20:31;103514.10;;;-1.35;81.66
35577;BME280;21680;52.400;16.920;2023-02-08T00:22:57;103509.36;;;-1.35;81.79
35577;BME280;21680;52.400;16.920;2023-02-08T00:25:22;103507.09;;;-1.35;81.73
35577;BME280;21680;52.400;16.920;2023-02-08T00:27:47;103506.25;;;-1.37;81.78
35577;BME280;21680;52.400;16.920;2023-02-08T00:30:12;103510.04;;;-1.42;81.74
35577;BME280;21680;52.400;16.920;2023-02-08T00:32:38;103508.63;;;-1.42;81.60
35577;BME280;21680;52.400;16.920;2023-02-08T00:35:03;103511.66;;;-1.42;81.64
35577;BME280;21680;52.400;16.920;2023-02-08T00:37:28;103511.89;;;-1.41;81.62
35577;BME280;21680;52.400;16.920;2023-02-08T00:39:53;103509.81;;;-1.40;81.72
35577;BME280;21680;52.400;16.920;2023-02-08T00:42:19;103508.88;;;-1.41;81.77
35577;BME280;21680;52.400;16.920;2023-02-08T00:44:44;103504.06;;;-1.46;81.43
35577;BME280;21680;52.400;16.920;2023-02-08T00:47:09;103500.07;;;-1.52;81.41
35577;BME280;21680;52.400;16.920;2023-02-08T00:49:34;103502.17;;;-1.55;81.55
35577;BME280;21680;52.400;16.920;2023-02-08T00:52:00;103498.98;;;-1.56;81.38
35577;BME280;21680;52.400;16.920;2023-02-08T00:54:25;103502.88;;;-1.58;81.34
35577;BME280;21680;52.400;16.920;2023-02-08T00:56:51;103502.90;;;-1.61;81.38
35577;BME280;21680;52.400;16.920;2023-02-08T00:59:16;103503.16;;;-1.63;81.36
35577;BME280;21680;52.400;16.920;2023-02-08T01:01:41;103502.02;;;-1.65;81.33
35577;BME280;21680;52.400;16.920;2023-02-08T01:04:06;103504.84;;;-1.65;81.35
35577;BME280;21680;52.400;16.920;2023-02-08T01:06:32;103508.33;;;-1.62;81.40
35577;BME280;21680;52.400;16.920;2023-02-08T01:08:57;103512.48;;;-1.59;81.45
35577;BME280;21680;52.400;16.920;2023-02-08T01:11:23;103514.94;;;-1.59;81.27
35577;BME280;21680;52.400;16.920;2023-02-08T01:13:52;103514.14;;;-1.61;81.35
35577;BME280;21680;52.400;16.920;2023-02-08T01:16:22;103513.37;;;-1.66;81.26
35577;BME280;21680;52.400;16.920;2023-02-08T01:18:48;103515.92;;;-1.67;81.57
35577;BME280;21680;52.400;16.920;2023-02-08T01:21:15;103521.18;;;-1.71;81.25
35577;BME280;21680;52.400;16.920;2023-02-08T01:23:41;103521.95;;;-1.73;81.30
35577;BME280;21680;52.400;16.920;2023-02-08T01:26:07;103525.95;;;-1.73;81.04
35577;BME280;21680;52.400;16.920;2023-02-08T01:28:33;103527.79;;;-1.75;81.12
35577;BME280;21680;52.400;16.920;2023-02-08T01:30:59;103527.30;;;-1.74;81.34
35577;BME280;21680;52.400;16.920;2023-02-08T01:33:24;103524.65;;;-1.75;81.20
35577;BME280;21680;52.400;16.920;2023-02-08T01:35:50;103524.23;;;-1.73;81.12
35577;BME280;21680;52.400;16.920;2023-02-08T01:38:16;103526.86;;;-1.70;81.25
35577;BME280;21680;52.400;16.920;2023-02-08T01:40:41;103530.15;;;-1.67;81.18
35577;BME280;21680;52.400;16.920;2023-02-08T01:43:23;103527.58;;;-1.66;81.19
35577;BME280;21680;52.400;16.920;2023-02-08T01:45:49;103531.53;;;-1.67;81.19
35577;BME280;21680;52.400;16.920;2023-02-08T01:48:25;103531.17;;;-1.68;81.23
35577;BME280;21680;52.400;16.920;2023-02-08T01:50:58;103531.19;;;-1.67;81.10
35577;BME280;21680;52.400;16.920;2023-02-08T01:53:25;103527.73;;;-1.67;81.02
35577;BME280;21680;52.400;16.920;2023-02-08T01:55:53;103530.98;;;-1.68;81.10
35577;BME280;21680;52.400;16.920;2023-02-08T01:58:19;103528.36;;;-1.71;81.15
35577;BME280;21680;52.400;16.920;2023-02-08T02:00:45;103531.33;;;-1.74;80.83
35577;BME280;21680;52.400;16.920;2023-02-08T02:03:11;103527.07;;;-1.79;80.91
35577;BME280;21680;52.400;16.920;2023-02-08T02:05:38;103532.20;;;-1.81;80.77
35577;BME280;21680;52.400;16.920;2023-02-08T02:08:04;103533.88;;;-1.82;81.09
35577;BME280;21680;52.400;16.920;2023-02-08T02:10:31;103535.40;;;-1.83;80.80
35577;BME280;21680;52.400;16.920;2023-02-08T02:13:11;103536.31;;;-1.83;81.04
35577;BME280;21680;52.400;16.920;2023-02-08T02:15:36;103536.36;;;-1.82;80.93
35577;BME280;21680;52.400;16.920;2023-02-08T02:18:02;103533.23;;;-1.81;81.05
35577;BME280;21680;52.400;16.920;2023-02-08T02:20:55;103533.61;;;-1.81;80.92
35577;BME280;21680;52.400;16.920;2023-02-08T02:26:48;103527.78;;;-1.82;81.01
35577;BME280;21680;52.400;16.920;2023-02-08T02:31:33;103530.26;;;-1.81;80.76
35577;BME280;21680;52.400;16.920;2023-02-08T02:42:16;103520.52;;;-1.89;80.87
35577;BME280;21680;52.400;16.920;2023-02-08T02:48:01;103528.48;;;-1.94;80.68
35577;BME280;21680;52.400;16.920;2023-02-08T02:55:23;103528.48;;;-1.98;80.90
35577;BME280;21680;52.400;16.920;2023-02-08T02:57:50;103528.27;;;-1.99;80.65
35577;BME280;21680;52.400;16.920;2023-02-08T03:00:18;103526.62;;;-2.00;80.59
35577;BME280;21680;52.400;16.920;2023-02-08T03:02:45;103529.13;;;-2.02;80.79
35577;BME280;21680;52.400;16.920;2023-02-08T03:05:10;103531.69;;;-2.03;80.70
35577;BME280;21680;52.400;16.920;2023-02-08T03:15:19;103539.90;;;-2.04;80.88
35577;BME280;21680;52.400;16.920;2023-02-08T03:20:37;103548.69;;;-2.00;81.05
35577;BME280;21680;52.400;16.920;2023-02-08T03:25:36;103553.85;;;-1.99;80.76
35577;BME280;21680;52.400;16.920;2023-02-08T03:31:07;103557.05;;;-2.01;80.62
35577;BME280;21680;52.400;16.920;2023-02-08T03:33:38;103557.59;;;-2.04;80.74
35577;BME280;21680;52.400;16.920;2023-02-08T03:36:15;103555.98;;;-2.04;80.76
35577;BME280;21680;52.400;16.920;2023-02-08T03:38:42;103553.73;;;-2.04;80.65
35577;BME280;21680;52.400;16.920;2023-02-08T03:41:13;103550.87;;;-2.05;80.71
35577;BME280;21680;52.400;16.920;2023-02-08T03:43:40;103551.14;;;-2.06;80.74
35577;BME280;21680;52.400;16.920;2023-02-08T03:48:32;103559.27;;;-2.12;80.74
35577;BME280;21680;52.400;16.920;2023-02-08T03:50:58;103557.25;;;-2.13;80.57
35577;BME280;21680;52.400;16.920;2023-02-08T03:53:25;103553.30;;;-2.12;80.91
35577;BME280;21680;52.400;16.920;2023-02-08T03:55:53;103555.83;;;-2.10;80.65
35577;BME280;21680;52.400;16.920;2023-02-08T03:58:21;103556.13;;;-2.11;80.68
35577;BME280;21680;52.400;16.920;2023-02-08T04:00:52;103557.92;;;-2.10;80.71
35577;BME280;21680;52.400;16.920;2023-02-08T04:03:19;103557.05;;;-2.10;80.62
35577;BME280;21680;52.400;16.920;2023-02-08T04:05:46;103553.73;;;-2.10;80.64
35577;BME280;21680;52.400;16.920;2023-02-08T04:08:12;103559.06;;;-2.09;80.58
35577;BME280;21680;52.400;16.920;2023-02-08T04:10:37;103558.66;;;-2.10;80.58
35577;BME280;21680;52.400;16.920;2023-02-08T04:13:03;103557.72;;;-2.08;80.59
35577;BME280;21680;52.400;16.920;2023-02-08T04:15:28;103556.81;;;-2.08;80.64
35577;BME280;21680;52.400;16.920;2023-02-08T04:17:54;103551.92;;;-2.08;80.61
35577;BME280;21680;52.400;16.920;2023-02-08T04:20:19;103551.13;;;-2.10;80.82
35577;BME280;21680;52.400;16.920;2023-02-08T04:22:44;103549.55;;;-2.10;80.60
35577;BME280;21680;52.400;16.920;2023-02-08T04:25:09;103548.73;;;-2.09;80.54
35577;BME280;21680;52.400;16.920;2023-02-08T04:27:35;103553.29;;;-2.09;80.53
35577;BME280;21680;52.400;16.920;2023-02-08T04:30:00;103556.67;;;-2.11;80.68
35577;BME280;21680;52.400;16.920;2023-02-08T04:32:25;103561.90;;;-2.11;80.49
35577;BME280;21680;52.400;16.920;2023-02-08T04:34:50;103565.50;;;-2.10;80.70
35577;BME280;21680;52.400;16.920;2023-02-08T04:37:15;103562.27;;;-2.08;80.42
35577;BME280;21680;52.400;16.920;2023-02-08T04:39:41;103560.73;;;-2.07;80.55
35577;BME280;21680;52.400;16.920;2023-02-08T04:42:07;103559.35;;;-2.07;80.67
35577;BME280;21680;52.400;16.920;2023-02-08T04:44:32;103558.64;;;-2.07;80.55
35577;BME280;21680;52.400;16.920;2023-02-08T04:46:58;103565.34;;;-2.06;80.80
35577;BME280;21680;52.400;16.920;2023-02-08T04:49:23;103564.16;;;-2.06;80.65
35577;BME280;21680;52.400;16.920;2023-02-08T04:51:48;103561.58;;;-2.08;80.82
35577;BME280;21680;52.400;16.920;2023-02-08T04:54:13;103553.52;;;-2.08;80.67
35577;BME280;21680;52.400;16.920;2023-02-08T04:56:38;103554.52;;;-2.06;80.64
35577;BME280;21680;52.400;16.920;2023-02-08T04:59:04;103556.62;;;-2.06;80.78
35577;BME280;21680;52.400;16.920;2023-02-08T05:01:29;103561.87;;;-2.05;80.65
35577;BME280;21680;52.400;16.920;2023-02-08T05:03:54;103564.40;;;-2.08;80.60
35577;BME280;21680;52.400;16.920;2023-02-08T05:06:19;103566.98;;;-2.08;80.56
35577;BME280;21680;52.400;16.920;2023-02-08T05:08:44;103567.04;;;-2.10;80.41
35577;BME280;21680;52.400;16.920;2023-02-08T05:11:10;103567.73;;;-2.13;80.59
35577;BME280;21680;52.400;16.920;2023-02-08T05:13:35;103568.67;;;-2.16;80.54
35577;BME280;21680;52.400;16.920;2023-02-08T05:16:00;103570.14;;;-2.14;80.48
35577;BME280;21680;52.400;16.920;2023-02-08T05:18:25;103570.08;;;-2.12;80.49
35577;BME280;21680;52.400;16.920;2023-02-08T05:20:55;103572.46;;;-2.10;80.70
35577;BME280;21680;52.400;16.920;2023-02-08T05:23:20;103574.61;;;-2.10;80.49
35577;BME280;21680;52.400;16.920;2023-02-08T05:25:45;103577.75;;;-2.10;80.35
35577;BME280;21680;52.400;16.920;2023-02-08T05:28:11;103582.95;;;-2.11;80.44
35577;BME280;21680;52.400;16.920;2023-02-08T05:30:36;103581.61;;;-2.13;80.26
35577;BME280;21680;52.400;16.920;2023-02-08T05:33:02;103587.46;;;-2.15;80.45
35577;BME280;21680;52.400;16.920;2023-02-08T05:35:27;103586.58;;;-2.15;80.25
35577;BME280;21680;52.400;16.920;2023-02-08T05:37:52;103584.73;;;-2.13;80.46
35577;BME280;21680;52.400;16.920;2023-02-08T05:40:18;103586.17;;;-2.13;80.42
35577;BME280;21680;52.400;16.920;2023-02-08T05:42:43;103587.91;;;-2.13;80.34
35577;BME280;21680;52.400;16.920;2023-02-08T05:45:08;103590.02;;;-2.13;80.26
35577;BME280;21680;52.400;16.920;2023-02-08T05:47:34;103594.50;;;-2.14;80.44
35577;BME280;21680;52.400;16.920;2023-02-08T05:50:00;103592.02;;;-2.15;80.32
35577;BME280;21680;52.400;16.920;2023-02-08T05:52:25;103592.41;;;-2.14;80.41
35577;BME280;21680;52.400;16.920;2023-02-08T05:54:50;103595.62;;;-2.13;80.26
35577;BME280;21680;52.400;16.920;2023-02-08T05:57:15;103594.23;;;-2.13;80.22
35577;BME280;21680;52.400;16.920;2023-02-08T05:59:41;103590.75;;;-2.12;80.22
35577;BME280;21680;52.400;16.920;2023-02-08T06:02:06;103583.12;;;-2.11;80.30
35577;BME280;21680;52.400;16.920;2023-02-08T06:04:31;103583.23;;;-2.09;80.34
35577;BME280;21680;52.400;16.920;2023-02-08T06:06:56;103585.66;;;-2.06;80.34
35577;BME280;21680;52.400;16.920;2023-02-08T06:09:21;103582.73;;;-2.06;80.50
35577;BME280;21680;52.400;16.920;2023-02-08T06:11:46;103590.89;;;-2.04;80.41
35577;BME280;21680;52.400;16.920;2023-02-08T06:14:12;103594.26;;;-2.03;80.45
35577;BME280;21680;52.400;16.920;2023-02-08T06:16:37;103602.95;;;-2.04;80.44
35577;BME280;21680;52.400;16.920;2023-02-08T06:19:02;103600.72;;;-2.06;80.16
35577;BME280;21680;52.400;16.920;2023-02-08T06:21:27;103599.00;;;-2.09;80.15
35577;BME280;21680;52.400;16.920;2023-02-08T06:23:52;103594.11;;;-2.09;80.29
35577;BME280;21680;52.400;16.920;2023-02-08T06:26:18;103601.68;;;-2.08;80.19
35577;BME280;21680;52.400;16.920;2023-02-08T06:28:43;103608.42;;;-2.06;80.25
35577;BME280;21680;52.400;16.920;2023-02-08T06:31:08;103612.17;;;-2.05;80.39
35577;BME280;21680;52.400;16.920;2023-02-08T06:33:33;103615.59;;;-2.04;80.52
35577;BME280;21680;52.400;16.920;2023-02-08T06:35:58;103617.04;;;-2.03;80.37
35577;BME280;21680;52.400;16.920;2023-02-08T06:38:24;103616.21;;;-2.02;80.33
35577;BME280;21680;52.400;16.920;2023-02-08T06:40:49;103617.42;;;-2.02;80.24
35577;BME280;21680;52.400;16.920;2023-02-08T06:43:14;103620.69;;;-2.00;80.33
35577;BME280;21680;52.400;16.920;2023-02-08T06:45:40;103625.17;;;-1.98;80.29
35577;BME280;21680;52.400;16.920;2023-02-08T06:48:06;103626.83;;;-1.97;80.07
35577;BME280;21680;52.400;16.920;2023-02-08T06:50:32;103625.25;;;-1.94;80.07
35577;BME280;21680;52.400;16.920;2023-02-08T06:52:57;103627.52;;;-1.91;80.16
35577;BME280;21680;52.400;16.920;2023-02-08T06:55:22;103624.52;;;-1.88;80.30
35577;BME280;21680;52.400;16.920;2023-02-08T06:57:47;103629.91;;;-1.86;80.48
35577;BME280;21680;52.400;16.920;2023-02-08T07:00:13;103633.77;;;-1.83;80.40
35577;BME280;21680;52.400;16.920;2023-02-08T07:02:38;103632.55;;;-1.82;80.21
35577;BME280;21680;52.400;16.920;2023-02-08T07:05:05;103636.21;;;-1.80;80.12
35577;BME280;21680;52.400;16.920;2023-02-08T07:07:30;103637.92;;;-1.77;80.36
35577;BME280;21680;52.400;16.920;2023-02-08T07:09:56;103635.27;;;-1.75;80.30
35577;BME280;21680;52.400;16.920;2023-02-08T07:12:21;103639.66;;;-1.71;80.23
35577;BME280;21680;52.400;16.920;2023-02-08T07:14:46;103635.47;;;-1.68;80.38
35577;BME280;21680;52.400;16.920;2023-02-08T07:17:11;103634.08;;;-1.68;80.09
35577;BME280;21680;52.400;16.920;2023-02-08T07:19:37;103630.95;;;-1.67;80.26
35577;BME280;21680;52.400;16.920;2023-02-08T07:22:02;103632.77;;;-1.66;80.27
35577;BME280;21680;52.400;16.920;2023-02-08T07:24:37;103632.30;;;-1.61;80.16
35577;BME280;21680;52.400;16.920;2023-02-08T07:27:03;103634.05;;;-1.58;80.22
35577;BME280;21680;52.400;16.920;2023-02-08T07:29:29;103633.65;;;-1.55;80.25
35577;BME280;21680;52.400;16.920;2023-02-08T07:31:56;103636.52;;;-1.54;80.04
35577;BME280;21680;52.400;16.920;2023-02-08T07:34:21;103632.05;;;-1.53;80.18
35577;BME280;21680;52.400;16.920;2023-02-08T07:36:46;103633.47;;;-1.49;80.04
35577;BME280;21680;52.400;16.920;2023-02-08T07:39:12;103631.08;;;-1.48;79.99
35577;BME280;21680;52.400;16.920;2023-02-08T07:41:38;103625.98;;;-1.45;80.20
35577;BME280;21680;52.400;16.920;2023-02-08T07:44:03;103619.70;;;-1.41;79.89
35577;BME280;21680;52.400;16.920;2023-02-08T07:46:28;103617.44;;;-1.38;79.98
35577;BME280;21680;52.400;16.920;2023-02-08T07:48:53;103618.72;;;-1.34;79.92
35577;BME280;21680;52.400;16.920;2023-02-08T07:51:18;103618.90;;;-1.30;79.99
35577;BME280;21680;52.400;16.920;2023-02-08T07:53:44;103617.25;;;-1.28;79.89
35577;BME280;21680;52.400;16.920;2023-02-08T07:56:09;103619.77;;;-1.27;79.83
35577;BME280;21680;52.400;16.920;2023-02-08T07:58:34;103616.29;;;-1.23;79.80
35577;BME280;21680;52.400;16.920;2023-02-08T08:00:59;103612.16;;;-1.18;80.02
35577;BME280;21680;52.400;16.920;2023-02-08T08:03:25;103611.33;;;-1.14;80.04
35577;BME280;21680;52.400;16.920;2023-02-08T08:05:50;103609.55;;;-1.08;79.96
35577;BME280;21680;52.400;16.920;2023-02-08T08:08:15;103597.27;;;-1.05;79.86
35577;BME280;21680;52.400;16.920;2023-02-08T08:10:40;103597.45;;;-1.08;79.91
35577;BME280;21680;52.400;16.920;2023-02-08T08:13:05;103596.55;;;-1.14;79.58
35577;BME280;21680;52.400;16.920;2023-02-08T08:15:31;103594.77;;;-1.19;79.74
35577;BME280;21680;52.400;16.920;2023-02-08T08:17:56;103591.13;;;-1.21;79.44
35577;BME280;21680;52.400;16.920;2023-02-08T08:20:22;103594.66;;;-1.27;79.45
35577;BME280;21680;52.400;16.920;2023-02-08T08:22:47;103594.19;;;-1.33;79.36
35577;BME280;21680;52.400;16.920;2023-02-08T08:25:12;103600.96;;;-1.38;79.52
35577;BME280;21680;52.400;16.920;2023-02-08T08:27:38;103602.00;;;-1.38;79.36
35577;BME280;21680;52.400;16.920;2023-02-08T08:30:07;103603.31;;;-1.37;79.41
35577;BME280;21680;52.400;16.920;2023-02-08T08:32:32;103604.94;;;-1.36;79.25
35577;BME280;21680;52.400;16.920;2023-02-08T08:34:57;103605.11;;;-1.36;79.37
35577;BME280;21680;52.400;16.920;2023-02-08T08:37:23;103606.30;;;-1.33;79.34
35577;BME280;21680;52.400;16.920;2023-02-08T08:39:48;103606.98;;;-1.30;79.36
35577;BME280;21680;52.400;16.920;2023-02-08T08:42:13;103608.57;;;-1.26;79.36
35577;BME280;21680;52.400;16.920;2023-02-08T08:44:38;103610.23;;;-1.25;79.32
35577;BME280;21680;52.400;16.920;2023-02-08T08:47:04;103615.49;;;-1.21;79.40
35577;BME280;21680;52.400;16.920;2023-02-08T08:49:30;103617.95;;;-1.18;79.22
35577;BME280;21680;52.400;16.920;2023-02-08T08:51:55;103620.72;;;-1.15;79.21
35577;BME280;21680;52.400;16.920;2023-02-08T08:54:23;103622.40;;;-1.14;79.27
35577;BME280;21680;52.400;16.920;2023-02-08T08:56:49;103622.14;;;-1.12;79.16
35577;BME280;21680;52.400;16.920;2023-02-08T08:59:14;103621.48;;;-1.11;79.20
35577;BME280;21680;52.400;16.920;2023-02-08T09:01:39;103619.46;;;-1.10;78.92
35577;BME280;21680;52.400;16.920;2023-02-08T09:04:06;103623.10;;;-1.07;78.97
35577;BME280;21680;52.400;16.920;2023-02-08T09:06:31;103624.36;;;-1.03;79.25
35577;BME280;21680;52.400;16.920;2023-02-08T09:08:56;103623.30;;;-1.00;79.20
35577;BME280;21680;52.400;16.920;2023-02-08T09:11:22;103622.88;;;-0.94;79.08
35577;BME280;21680;52.400;16.920;2023-02-08T09:13:47;103623.13;;;-0.89;78.96
35577;BME280;21680;52.400;16.920;2023-02-08T09:16:17;103620.42;;;-0.84;78.90
35577;BME280;21680;52.400;16.920;2023-02-08T09:18:43;103623.61;;;-0.80;79.05
35577;BME280;21680;52.400;16.920;2023-02-08T09:21:09;103624.62;;;-0.78;79.02
35577;BME280;21680;52.400;16.920;2023-02-08T09:23:35;103625.80;;;-0.75;78.94
35577;BME280;21680;52.400;16.920;2023-02-08T09:26:01;103628.13;;;-0.71;79.06
35577;BME280;21680;52.400;16.920;2023-02-08T09:28:27;103625.30;;;-0.64;79.06
35577;BME280;21680;52.400;16.920;2023-02-08T09:30:52;103625.55;;;-0.59;79.07
35577;BME280;21680;52.400;16.920;2023-02-08T09:33:17;103624.79;;;-0.57;78.19
35577;BME280;21680;52.400;16.920;2023-02-08T09:35:42;103624.92;;;-0.54;78.83
35577;BME280;21680;52.400;16.920;2023-02-08T09:38:07;103623.55;;;-0.50;78.82
35577;BME280;21680;52.400;16.920;2023-02-08T09:40:51;103622.52;;;-0.46;78.72
35577;BME280;21680;52.400;16.920;2023-02-08T09:44:09;103618.73;;;-0.41;78.74
35577;BME280;21680;52.400;16.920;2023-02-08T09:46:16;103616.05;;;-0.35;78.92
35577;BME280;21680;52.400;16.920;2023-02-08T09:48:42;103613.38;;;-0.32;78.56
35577;BME280;21680;52.400;16.920;2023-02-08T09:51:21;103613.33;;;-0.29;78.47
35577;BME280;21680;52.400;16.920;2023-02-08T09:53:50;103613.66;;;-0.26;78.51
35577;BME280;21680;52.400;16.920;2023-02-08T09:56:18;103609.58;;;-0.23;78.43
35577;BME280;21680;52.400;16.920;2023-02-08T09:58:46;103613.61;;;-0.20;78.41
35577;BME280;21680;52.400;16.920;2023-02-08T10:01:24;103613.41;;;-0.13;78.66
35577;BME280;21680;52.400;16.920;2023-02-08T10:03:56;103611.85;;;-0.05;78.50
35577;BME280;21680;52.400;16.920;2023-02-08T10:06:23;103613.38;;;0.02;78.36
35577;BME280;21680;52.400;16.920;2023-02-08T10:08:50;103615.43;;;0.08;78.42
35577;BME280;21680;52.400;16.920;2023-02-08T10:19:23;103604.05;;;0.31;78.06
35577;BME280;21680;52.400;16.920;2023-02-08T10:22:15;103599.10;;;0.35;78.10
35577;BME280;21680;52.400;16.920;2023-02-08T10:24:51;103599.00;;;0.37;78.04
35577;BME280;21680;52.400;16.920;2023-02-08T10:35:13;103596.23;;;0.53;77.63
35577;BME280;21680;52.400;16.920;2023-02-08T10:37:40;103593.83;;;0.58;77.85
35577;BME280;21680;52.400;16.920;2023-02-08T10:42:41;103581.05;;;0.76;77.87
35577;BME280;21680;52.400;16.920;2023-02-08T10:45:14;103578.51;;;0.78;77.59
35577;BME280;21680;52.400;16.920;2023-02-08T10:47:47;103582.86;;;0.80;77.49
35577;BME280;21680;52.400;16.920;2023-02-08T10:52:57;103577.94;;;0.96;77.55
35577;BME280;21680;52.400;16.920;2023-02-08T10:55:22;103577.61;;;1.02;77.49
35577;BME280;21680;52.400;16.920;2023-02-08T10:57:48;103569.45;;;1.05;77.19
35577;BME280;21680;52.400;16.920;2023-02-08T11:00:31;103563.39;;;1.11;77.18
35577;BME280;21680;52.400;16.920;2023-02-08T11:02:57;103564.30;;;1.16;76.88
35577;BME280;21680;52.400;16.920;2023-02-08T11:05:35;103561.82;;;1.24;76.92
35577;BME280;21680;52.400;16.920;2023-02-08T11:08:07;103557.94;;;1.32;77.11
35577;BME280;21680;52.400;16.920;2023-02-08T11:10:33;103555.73;;;1.39;77.27
35577;BME280;21680;52.400;16.920;2023-02-08T11:15:29;103560.09;;;1.50;76.87
35577;BME280;21680;52.400;16.920;2023-02-08T11:17:57;103555.52;;;1.51;76.85
35577;BME280;21680;52.400;16.920;2023-02-08T11:20:25;103554.66;;;1.51;76.75
35577;BME280;21680;52.400;16.920;2023-02-08T11:22:51;103550.17;;;1.53;76.72
35577;BME280;21680;52.400;16.920;2023-02-08T11:25:30;103549.26;;;1.57;76.57
35577;BME280;21680;52.400;16.920;2023-02-08T11:27:56;103546.77;;;1.56;76.35
35577;BME280;21680;52.400;16.920;2023-02-08T11:30:22;103545.56;;;1.61;76.60
35577;BME280;21680;52.400;16.920;2023-02-08T11:32:48;103547.54;;;1.62;76.29
35577;BME280;21680;52.400;16.920;2023-02-08T11:35:33;103546.27;;;1.61;76.44
35577;BME280;21680;52.400;16.920;2023-02-08T11:37:58;103547.60;;;1.59;76.25
35577;BME280;21680;52.400;16.920;2023-02-08T11:40:34;103544.05;;;1.63;76.11
35577;BME280;21680;52.400;16.920;2023-02-08T11:43:00;103545.05;;;1.66;76.07
35577;BME280;21680;52.400;16.920;2023-02-08T11:45:30;103547.09;;;1.65;76.02
35577;BME280;21680;52.400;16.920;2023-02-08T11:47:56;103548.74;;;1.66;75.97
35577;BME280;21680;52.400;16.920;2023-02-08T11:50:35;103546.91;;;1.69;76.00
35577;BME280;21680;52.400;16.920;2023-02-08T11:53:03;103546.31;;;1.72;75.71
35577;BME280;21680;52.400;16.920;2023-02-08T11:55:30;103547.33;;;1.75;75.67
35577;BME280;21680;52.400;16.920;2023-02-08T12:00:36;103543.21;;;1.87;75.59
35577;BME280;21680;52.400;16.920;2023-02-08T12:03:20;103533.17;;;1.96;75.51
35577;BME280;21680;52.400;16.920;2023-02-08T12:05:53;103536.70;;;2.05;75.56
35577;BME280;21680;52.400;16.920;2023-02-08T12:08:32;103534.41;;;2.10;75.48
35577;BME280;21680;52.400;16.920;2023-02-08T12:11:14;103532.56;;;2.13;75.33
35577;BME280;21680;52.400;16.920;2023-02-08T12:13:42;103524.92;;;2.16;75.43
35577;BME280;21680;52.400;16.920;2023-02-08T12:21:31;103518.15;;;2.19;74.91
35577;BME280;21680;52.400;16.920;2023-02-08T12:24:09;103521.16;;;2.29;74.66
35577;BME280;21680;52.400;16.920;2023-02-08T12:26:53;103520.62;;;2.28;74.38
35577;BME280;21680;52.400;16.920;2023-02-08T12:29:39;103511.64;;;2.28;74.46
35577;BME280;21680;52.400;16.920;2023-02-08T12:34:47;103511.48;;;2.48;74.39
35577;BME280;21680;52.400;16.920;2023-02-08T12:37:32;103512.33;;;2.48;74.28
35577;BME280;21680;52.400;16.920;2023-02-08T12:45:56;103497.45;;;2.46;73.86
35577;BME280;21680;52.400;16.920;2023-02-08T12:48:34;103495.67;;;2.41;73.61
35577;BME280;21680;52.400;16.920;2023-02-08T12:53:33;103492.23;;;2.43;73.59
35577;BME280;21680;52.400;16.920;2023-02-08T12:56:03;103489.96;;;2.54;73.66
35577;BME280;21680;52.400;16.920;2023-02-08T13:01:17;103493.55;;;2.62;73.58
35577;BME280;21680;52.400;16.920;2023-02-08T13:03:44;103493.27;;;2.69;73.65
35577;BME280;21680;52.400;16.920;2023-02-08T13:06:16;103490.78;;;2.73;73.65
35577;BME280;21680;52.400;16.920;2023-02-08T13:11:21;103494.61;;;2.87;73.43
35577;BME280;21680;52.400;16.920;2023-02-08T13:13:51;103491.40;;;2.81;73.18
35577;BME280;21680;52.400;16.920;2023-02-08T13:16:19;103492.36;;;2.83;73.35
35577;BME280;21680;52.400;16.920;2023-02-08T13:19:00;103485.83;;;2.88;73.16
35577;BME280;21680;52.400;16.920;2023-02-08T13:21:28;103484.42;;;2.89;73.27
35577;BME280;21680;52.400;16.920;2023-02-08T13:23:56;103483.03;;;2.84;73.15
35577;BME280;21680;52.400;16.920;2023-02-08T13:26:26;103476.05;;;2.81;73.12
35577;BME280;21680;52.400;16.920;2023-02-08T13:28:53;103474.99;;;2.76;73.27
35577;BME280;21680;52.400;16.920;2023-02-08T13:31:19;103470.77;;;2.72;72.97
35577;BME280;21680;52.400;16.920;2023-02-08T13:33:47;103469.55;;;2.67;71.85
35577;BME280;21680;52.400;16.920;2023-02-08T13:36:23;103468.34;;;2.62;72.75
35577;BME280;21680;52.400;16.920;2023-02-08T13:38:50;103465.02;;;2.64;73.01
35577;BME280;21680;52.400;16.920;2023-02-08T13:41:16;103464.17;;;2.58;72.65
35577;BME280;21680;52.400;16.920;2023-02-08T13:43:47;103468.37;;;2.57;72.66
35577;BME280;21680;52.400;16.920;2023-02-08T13:46:14;103464.27;;;2.56;72.79
35577;BME280;21680;52.400;16.920;2023-02-08T13:48:48;103463.35;;;2.61;72.84
35577;BME280;21680;52.400;16.920;2023-02-08T13:59:27;103469.02;;;2.67;72.49
35577;BME280;21680;52.400;16.920;2023-02-08T14:04:45;103469.25;;;2.57;72.67
35577;BME280;21680;52.400;16.920;2023-02-08T14:12:20;103465.74;;;2.28;72.38
35577;BME280;21680;52.400;16.920;2023-02-08T14:17:31;103466.86;;;2.15;72.48
35577;BME280;21680;52.400;16.920;2023-02-08T14:19:57;103459.92;;;2.09;72.52
35577;BME280;21680;52.400;16.920;2023-02-08T14:22:23;103459.29;;;2.06;72.39
35577;BME280;21680;52.400;16.920;2023-02-08T14:27:39;103450.58;;;2.04;72.45
35577;BME280;21680;52.400;16.920;2023-02-08T14:32:31;103448.41;;;2.12;72.53
35577;BME280;21680;52.400;16.920;2023-02-08T14:35:49;103445.48;;;2.09;72.33
35577;BME280;21680;52.400;16.920;2023-02-08T14:37:44;103442.42;;;2.07;72.62